Time;durP1;ratioP1;P1;durP2;ratioP2;P2;SDS_P1;SDS_P2;PMS_P1;PMS_P2;Temp;Humidity;BMP_temperature;BMP_pressure;BME280_temperature;BME280_humidity;BME280_pressure;Samples;Min_cycle;Max_cycle;Signal;HPM_P1;HPM_P2
2023/01/16 00:00:59;;;;;;;18.80;11.50;;;;;;;-1.90;100.00;99508.98;106989;1280;25344;-66
2023/01/16 00:03:26;;;;;;;18.80;11.70;;;;;;;-1.88;100.00;99510.66;106913;1280;22580;-67
2023/01/16 00:05:53;;;;;;;17.70;10.80;;;;;;;-1.84;100.00;99509.98;106917;1280;25382;-66
2023/01/16 00:08:20;;;;;;;19.50;11.20;;;;;;;-1.79;100.00;99505.45;107041;1280;22720;-67
2023/01/16 00:10:47;;;;;;;19.80;10.50;;;;;;;-1.84;100.00;99499.11;107105;1280;24284;-66
2023/01/16 00:13:14;;;;;;;16.40;9.60;;;;;;;-1.90;100.00;99490.66;107047;1280;22581;-66
2023/01/16 00:15:48;;;;;;;19.10;10.30;;;;;;;-1.89;100.00;99489.60;107296;1280;25508;-66
2023/01/16 00:18:16;;;;;;;15.30;9.50;;;;;;;-1.85;100.00;99494.87;107990;1280;22552;-67
2023/01/16 00:20:43;;;;;;;16.20;8.90;;;;;;;-1.83;100.00;99495.35;107030;1280;22539;-66
2023/01/16 00:23:10;;;;;;;17.50;9.50;;;;;;;-1.85;100.00;99499.02;107089;1280;23577;-67
2023/01/16 00:25:41;;;;;;;18.40;10.40;;;;;;;-1.88;100.00;99498.27;109907;1280;22542;-67
2023/01/16 00:28:12;;;;;;;17.90;9.40;;;;;;;-1.82;100.00;99489.30;109955;1280;22987;-67
2023/01/16 00:30:39;;;;;;;16.50;8.60;;;;;;;-1.78;100.00;99475.95;109923;1280;22420;-67
2023/01/16 00:33:06;;;;;;;14.50;8.60;;;;;;;-1.74;100.00;99463.86;109914;1280;22262;-68
2023/01/16 00:35:33;;;;;;;14.60;8.90;;;;;;;-1.76;100.00;99455.19;109911;1280;22207;-67
2023/01/16 00:38:00;;;;;;;14.80;8.80;;;;;;;-1.79;100.00;99453.61;109932;1280;22234;-67
2023/01/16 00:40:27;;;;;;;12.90;7.70;;;;;;;-1.77;100.00;99449.60;109900;1280;22287;-67
2023/01/16 00:42:54;;;;;;;14.50;8.20;;;;;;;-1.73;100.00;99444.32;109916;1280;22211;-68
2023/01/16 00:45:22;;;;;;;12.90;7.90;;;;;;;-1.69;100.00;99441.63;109950;1281;22295;-67
2023/01/16 00:47:49;;;;;;;11.90;7.00;;;;;;;-1.70;100.00;99441.73;109851;1281;22237;-68
2023/01/16 00:50:16;;;;;;;11.50;6.60;;;;;;;-1.72;100.00;99441.16;109898;1280;22336;-67
2023/01/16 00:52:43;;;;;;;11.20;6.80;;;;;;;-1.67;100.00;99441.46;109039;1278;24226;-67
2023/01/16 00:55:10;;;;;;;10.60;5.90;;;;;;;-1.61;100.00;99443.87;107075;1280;22639;-67
2023/01/16 00:57:37;;;;;;;11.80;6.50;;;;;;;-1.57;100.00;99443.80;106808;1280;23270;-67
2023/01/16 01:00:05;;;;;;;11.80;7.30;;;;;;;-1.59;100.00;99440.74;106869;1275;22531;-67
2023/01/16 01:02:32;;;;;;;10.10;5.90;;;;;;;-1.60;100.00;99432.73;108018;1280;27139;-67
2023/01/16 01:04:59;;;;;;;10.70;6.20;;;;;;;-1.56;100.00;99425.23;107065;1280;24240;-67
2023/01/16 01:07:26;;;;;;;8.80;5.60;;;;;;;-1.53;100.00;99419.00;107118;1280;25529;-67
2023/01/16 01:09:53;;;;;;;10.30;6.50;;;;;;;-1.51;100.00;99419.70;106983;1280;22542;-67
2023/01/16 01:12:20;;;;;;;11.80;6.40;;;;;;;-1.54;100.00;99418.96;107156;1281;22634;-67
2023/01/16 01:14:47;;;;;;;10.90;6.40;;;;;;;-1.57;100.00;99419.36;107159;1279;22536;-67
2023/01/16 01:17:14;;;;;;;11.70;7.20;;;;;;;-1.54;100.00;99424.98;107226;1280;23445;-67
2023/01/16 01:19:41;;;;;;;10.70;6.20;;;;;;;-1.48;100.00;99426.56;107194;1279;22576;-67
2023/01/16 01:22:08;;;;;;;8.50;5.60;;;;;;;-1.44;100.00;99428.30;107093;1279;22530;-67
2023/01/16 01:24:35;;;;;;;10.30;5.50;;;;;;;-1.44;100.00;99428.87;107085;1279;22529;-67
2023/01/16 01:27:02;;;;;;;11.70;6.20;;;;;;;-1.46;100.00;99427.36;107128;1279;22551;-67
2023/01/16 01:29:29;;;;;;;10.70;6.10;;;;;;;-1.42;100.00;99424.56;107295;1279;22552;-67
2023/01/16 01:31:56;;;;;;;9.90;5.70;;;;;;;-1.36;100.00;99417.36;107287;1279;24339;-67
2023/01/16 01:34:23;;;;;;;9.00;5.50;;;;;;;-1.34;100.00;99413.66;107163;1279;23335;-67
2023/01/16 01:36:50;;;;;;;8.20;5.10;;;;;;;-1.34;100.00;99410.16;107084;1280;22534;-67
2023/01/16 01:39:17;;;;;;;8.60;5.40;;;;;;;-1.37;100.00;99406.88;107199;1279;23537;-66
2023/01/16 01:41:44;;;;;;;9.10;5.30;;;;;;;-1.35;100.00;99397.55;107262;1279;22582;-66
2023/01/16 01:44:49;;;;;;;7.60;4.80;;;;;;;-1.29;100.00;99391.80;107263;1279;22524;-66
2023/01/16 01:47:16;;;;;;;8.40;4.90;;;;;;;-1.27;100.00;99387.45;107049;1279;24268;-66
2023/01/16 01:49:44;;;;;;;8.60;4.40;;;;;;;-1.33;100.00;99383.62;107117;1279;25361;-66
2023/01/16 01:52:11;;;;;;;8.70;4.70;;;;;;;-1.37;100.00;99379.65;107185;1281;25859;-66
2023/01/16 01:54:43;;;;;;;7.70;4.30;;;;;;;-1.32;100.00;99374.30;107069;1279;24218;-66
2023/01/16 01:57:26;;;;;;;8.10;4.60;;;;;;;-1.28;100.00;99376.81;109992;1279;22864;-67
2023/01/16 01:59:58;;;;;;;8.20;5.00;;;;;;;-1.22;100.00;99376.29;110005;1280;22354;-67
2023/01/16 02:02:26;;;;;;;7.40;4.50;;;;;;;-1.23;100.00;99366.37;109969;1279;23123;-67
2023/01/16 02:04:56;;;;;;;6.60;4.30;;;;;;;-1.24;100.00;99366.67;109920;1279;22452;-67
2023/01/16 02:07:24;;;;;;;7.30;4.40;;;;;;;-1.18;100.00;99365.08;109999;1279;22944;-66
2023/01/16 02:09:53;;;;;;;7.00;4.30;;;;;;;-1.13;100.00;99360.80;109921;1280;22313;-67
2023/01/16 06:10:45;;;;;;;13.70;8.20;;;;;;;-1.81;100.00;99266.86;103051;1311;545971;-66
2023/01/16 06:13:12;;;;;;;11.80;7.20;;;;;;;-1.64;100.00;99266.97;109438;1287;22749;-67
2023/01/16 06:15:39;;;;;;;10.80;6.20;;;;;;;-1.44;100.00;99266.42;109466;1282;22193;-67
2023/01/16 06:18:06;;;;;;;9.60;5.80;;;;;;;-1.27;100.00;99265.34;109471;1289;22232;-67
2023/01/16 06:20:33;;;;;;;7.50;4.30;;;;;;;-1.11;100.00;99272.40;109488;1285;22219;-67
2023/01/16 06:23:00;;;;;;;5.10;3.40;;;;;;;-0.97;100.00;99269.63;109551;1288;22201;-67
2023/01/16 06:25:27;;;;;;;5.30;3.20;;;;;;;-0.83;100.00;99269.30;109517;1285;182679;-67
2023/01/16 06:27:54;;;;;;;5.70;3.00;;;;;;;-0.71;100.00;99271.98;109582;1285;22229;-67
2023/01/16 06:30:21;;;;;;;4.70;3.20;;;;;;;-0.61;100.00;99263.48;109687;1285;22373;-67
2023/01/16 06:32:49;;;;;;;6.20;3.80;;;;;;;-0.54;100.00;99258.05;109752;1285;22201;-67
2023/01/16 06:35:17;;;;;;;5.20;3.40;;;;;;;-0.46;100.00;99263.36;109893;1281;22222;-67
2023/01/16 06:37:44;;;;;;;6.00;3.70;;;;;;;-0.38;100.00;99264.31;109873;1281;22217;-67
2023/01/16 06:40:11;;;;;;;5.10;3.50;;;;;;;-0.31;100.00;99264.16;109846;1281;23166;-67
2023/01/16 06:42:38;;;;;;;5.40;3.50;;;;;;;-0.28;100.00;99263.98;109903;1281;22217;-67
2023/01/16 06:45:06;;;;;;;5.70;3.60;;;;;;;-0.20;100.00;99263.45;109863;1281;22218;-67
2023/01/16 06:47:33;;;;;;;5.30;3.30;;;;;;;-0.11;100.00;99264.15;109875;1281;22243;-67
2023/01/16 06:50:00;;;;;;;4.90;3.20;;;;;;;-0.03;100.00;99265.33;109866;1281;22208;-67
2023/01/16 06:52:27;;;;;;;6.20;3.50;;;;;;;0.02;100.00;99266.75;109871;1281;23021;-67
2023/01/16 06:54:55;;;;;;;6.10;3.90;;;;;;;0.06;100.00;99267.70;109862;1281;22713;-67
2023/01/16 06:57:22;;;;;;;5.60;3.40;;;;;;;0.13;100.00;99270.39;109877;1282;22206;-67
2023/01/16 06:59:50;;;;;;;5.40;3.20;;;;;;;0.20;100.00;99269.17;109857;1281;22478;-67
2023/01/16 07:02:17;;;;;;;5.50;3.20;;;;;;;0.25;100.00;99261.75;109820;1281;22568;-67
2023/01/16 07:04:44;;;;;;;6.00;3.30;;;;;;;0.22;100.00;99257.95;109770;1282;22224;-68
2023/01/16 07:07:11;;;;;;;6.00;3.60;;;;;;;0.20;100.00;99258.80;109854;1280;22247;-68
2023/01/16 07:09:38;;;;;;;7.10;3.70;;;;;;;0.22;100.00;99255.86;109849;1281;22183;-69
2023/01/16 07:12:05;;;;;;;5.60;3.70;;;;;;;0.25;100.00;99256.42;109690;1281;23098;-67
2023/01/16 07:22:49;;;;;;;7.70;4.40;;;;;;;0.33;100.00;99252.86;109841;1282;22484;-68
2023/01/16 07:25:18;;;;;;;8.00;4.10;;;;;;;0.37;100.00;99253.20;109771;1282;22443;-67
2023/01/16 07:27:47;;;;;;;8.80;5.30;;;;;;;0.35;100.00;99253.30;109727;1283;22964;-68
2023/01/16 07:30:18;;;;;;;7.80;4.80;;;;;;;0.33;100.00;99249.64;109681;1282;22524;-67
2023/01/16 07:32:45;;;;;;;8.70;5.50;;;;;;;0.37;100.00;99247.15;109671;1283;22199;-68
2023/01/16 07:35:13;;;;;;;8.30;5.60;;;;;;;0.40;100.00;99251.66;109804;1283;22279;-68
2023/01/16 07:37:42;;;;;;;8.30;5.60;;;;;;;0.45;100.00;99249.67;109810;1283;22319;-68
2023/01/16 07:40:10;;;;;;;8.80;5.80;;;;;;;0.46;100.00;99250.66;109780;1283;23403;-68
2023/01/16 07:42:37;;;;;;;7.60;4.70;;;;;;;0.44;100.00;99252.02;109770;1283;22238;-68
2023/01/16 07:45:04;;;;;;;8.20;5.30;;;;;;;0.47;100.00;99250.86;109781;1282;22290;-67
2023/01/16 07:47:33;;;;;;;7.50;4.80;;;;;;;0.54;100.00;99248.50;109791;1283;22415;-68
2023/01/16 07:50:01;;;;;;;9.30;5.90;;;;;;;0.60;100.00;99250.83;109832;1281;22201;-68
2023/01/16 07:52:28;;;;;;;9.90;6.20;;;;;;;0.60;100.00;99252.23;109870;1281;22317;-68
2023/01/16 14:13:12;;;;;;;46.50;25.10;;;;;;;0.16;100.00;98985.41;104340;1305;544884;-67
2023/01/16 14:18:41;;;;;;;37.40;22.40;;;;;;;0.52;100.00;98985.77;109181;1290;23406;-68
2023/01/16 14:21:22;;;;;;;34.50;21.70;;;;;;;0.66;100.00;98986.20;109264;1290;22213;-70
2023/01/16 14:24:01;;;;;;;29.60;19.00;;;;;;;0.79;100.00;98981.11;109320;1290;22233;-68
2023/01/16 14:26:37;;;;;;;24.10;16.00;;;;;;;0.91;100.00;98981.24;109588;1280;253839;-68
2023/01/16 14:29:11;;;;;;;23.70;15.80;;;;;;;1.01;100.00;98982.83;109922;1281;22247;-68
2023/01/16 14:31:41;;;;;;;22.80;15.70;;;;;;;1.11;100.00;98984.83;109872;1281;22323;-68
2023/01/16 14:34:25;;;;;;;25.20;16.20;;;;;;;1.19;100.00;98985.38;109734;1281;22239;-68
2023/01/16 14:36:59;;;;;;;21.90;15.30;;;;;;;1.28;100.00;98986.13;109898;1281;22304;-68
2023/01/16 14:39:28;;;;;;;26.30;16.40;;;;;;;1.34;100.00;98987.20;109816;1281;22421;-68
2023/01/16 14:56:33;;;;;;;24.10;16.80;;;;;;;1.52;100.00;98974.44;109784;1280;22221;-69
2023/01/16 14:59:09;;;;;;;23.70;16.60;;;;;;;1.49;100.00;98972.41;109817;1280;22411;-69
2023/01/16 15:05:08;;;;;;;23.60;16.10;;;;;;;1.52;100.00;98971.60;109955;1280;23034;-70
2023/01/16 15:07:48;;;;;;;25.00;16.90;;;;;;;1.56;100.00;98970.09;109909;1280;22238;-69
2023/01/16 15:10:27;;;;;;;24.80;16.50;;;;;;;1.58;100.00;98972.87;109957;1280;22248;-69
2023/01/16 15:12:55;;;;;;;24.90;16.80;;;;;;;1.59;100.00;98979.35;109890;1280;22228;-69
2023/01/16 15:15:24;;;;;;;25.10;17.30;;;;;;;1.58;100.00;98981.03;109907;1280;22176;-68
2023/01/16 15:23:26;;;;;;;26.50;18.20;;;;;;;1.63;100.00;98986.47;109897;1280;22217;-68
2023/01/16 15:26:26;;;;;;;28.30;18.80;;;;;;;1.64;100.00;98986.49;109937;1280;22214;-69
2023/01/16 15:29:13;;;;;;;27.30;18.40;;;;;;;1.63;100.00;98986.67;109896;1281;23579;-68
2023/01/16 15:31:42;;;;;;;27.30;19.10;;;;;;;1.59;100.00;98981.96;109972;1280;22283;-68
2023/01/16 15:34:12;;;;;;;23.50;17.20;;;;;;;1.62;100.00;98984.14;109960;1280;22400;-68
2023/01/16 15:36:41;;;;;;;24.40;17.70;;;;;;;1.66;100.00;98979.61;109943;1280;22274;-69
2023/01/16 15:39:17;;;;;;;22.50;16.20;;;;;;;1.68;100.00;98977.95;109945;1280;22200;-68
2023/01/16 15:47:34;;;;;;;22.70;16.10;;;;;;;1.65;100.00;98969.23;109841;1280;22216;-68
2023/01/16 15:50:17;;;;;;;22.00;15.40;;;;;;;1.68;100.00;98969.52;109910;1280;22236;-69
2023/01/16 15:52:45;;;;;;;20.80;15.30;;;;;;;1.69;100.00;98965.48;109952;1280;22432;-68
2023/01/16 15:55:16;;;;;;;21.00;15.20;;;;;;;1.70;100.00;98961.59;109855;1280;22245;-69
2023/01/16 15:57:48;;;;;;;23.90;16.00;;;;;;;1.73;100.00;98952.36;109833;1261;22224;-69
2023/01/16 16:00:29;;;;;;;21.50;14.20;;;;;;;1.75;100.00;98952.41;109893;1280;23098;-69
2023/01/16 22:18:10;;;;;;;54.60;30.10;;;;;;;2.02;100.00;98675.83;104165;1305;544827;-71
2023/01/16 22:20:40;;;;;;;41.20;25.50;;;;;;;2.19;100.00;98687.45;109605;1273;23143;-71
2023/01/16 22:23:07;;;;;;;31.80;21.10;;;;;;;2.35;100.00;98680.03;109614;1287;22215;-71
2023/01/16 22:25:34;;;;;;;27.20;18.50;;;;;;;2.49;100.00;98679.05;109596;1288;22215;-72
2023/01/16 22:28:11;;;;;;;19.60;14.00;;;;;;;2.61;100.00;98681.98;109570;1288;22258;-72
2023/01/16 22:30:38;;;;;;;;;;;;;;;2.73;100.00;98679.91;109410;1285;241503;-72
2023/01/16 22:33:06;;;;;;;14.30;11.00;;;;;;;2.79;100.00;98676.02;109856;1282;22379;-72
2023/01/16 22:35:33;;;;;;;13.50;9.60;;;;;;;2.85;100.00;98671.80;109894;1282;22421;-72
2023/01/16 22:38:00;;;;;;;17.70;10.00;;;;;;;2.93;100.00;98674.23;109824;1282;22291;-72
2023/01/16 22:40:27;;;;;;;13.80;9.70;;;;;;;3.00;100.00;98673.52;109898;1282;22905;-72
2023/01/16 22:46:20;;;;;;;14.60;9.50;;;;;;;3.07;100.00;98669.63;109872;1282;22458;-72
2023/01/16 22:48:27;;;;;;;13.20;9.60;;;;;;;3.09;100.00;98659.23;109847;1282;23582;-72
2023/01/16 22:50:56;;;;;;;14.70;10.10;;;;;;;3.13;100.00;98658.59;109888;1282;22447;-71
2023/01/16 22:53:23;;;;;;;13.40;9.00;;;;;;;3.18;100.00;98653.15;109869;1282;22414;-72
2023/01/16 22:55:53;;;;;;;14.30;9.50;;;;;;;3.21;100.00;98650.08;109833;1282;23570;-71
2023/01/16 22:58:22;;;;;;;17.10;9.60;;;;;;;3.23;100.00;98648.54;109909;1281;22426;-72
2023/01/16 23:00:51;;;;;;;14.80;9.50;;;;;;;3.22;100.00;98638.89;109936;1281;22522;-72
2023/01/16 23:03:18;;;;;;;12.50;9.40;;;;;;;3.25;100.00;98638.55;109933;1281;23070;-71
2023/01/16 23:05:45;;;;;;;14.40;9.00;;;;;;;3.29;100.00;98633.92;109936;1281;22522;-71
2023/01/16 23:08:12;;;;;;;13.10;9.20;;;;;;;3.32;100.00;98634.66;109907;1281;22410;-71
2023/01/16 23:10:40;;;;;;;13.20;9.90;;;;;;;3.33;100.00;98634.46;109919;1281;22215;-71
2023/01/16 23:13:08;;;;;;;16.00;9.50;;;;;;;3.32;100.00;98626.70;109941;1281;22216;-71
2023/01/16 23:15:38;;;;;;;12.20;8.50;;;;;;;3.37;100.00;98616.31;109920;1281;22205;-71
2023/01/16 23:18:06;;;;;;;14.10;9.30;;;;;;;3.40;100.00;98614.41;109929;1281;22320;-72
2023/01/16 23:20:33;;;;;;;13.20;8.00;;;;;;;3.44;100.00;98613.42;109927;1281;22413;-71
2023/01/16 23:23:00;;;;;;;13.30;8.80;;;;;;;3.47;100.00;98607.88;109925;1281;22232;-71
2023/01/16 23:25:27;;;;;;;16.20;9.50;;;;;;;3.45;100.00;98601.23;109923;1281;22985;-72
2023/01/16 23:27:54;;;;;;;13.50;9.20;;;;;;;3.47;100.00;98598.14;108258;1281;22545;-72
2023/01/16 23:30:22;;;;;;;14.00;8.20;;;;;;;3.51;100.00;98599.40;106950;1282;23789;-70
2023/01/16 23:32:49;;;;;;;12.80;9.60;;;;;;;3.51;100.00;98599.35;106785;1282;22530;-71
2023/01/16 23:35:16;;;;;;;14.90;9.90;;;;;;;3.48;100.00;98595.34;106757;1282;24379;-71
2023/01/16 23:37:43;;;;;;;14.10;9.80;;;;;;;3.48;100.00;98595.92;107053;1282;22775;-72
2023/01/16 23:40:10;;;;;;;13.20;9.00;;;;;;;3.50;100.00;98591.11;107053;1282;22561;-72
2023/01/16 23:45:23;;;;;;;13.80;9.60;;;;;;;3.54;100.00;98594.16;106892;1282;22569;-71
2023/01/16 23:47:50;;;;;;;13.60;9.80;;;;;;;3.51;100.00;98592.52;107070;1279;22588;-71
2023/01/16 23:50:17;;;;;;;12.60;8.80;;;;;;;3.50;100.00;98584.86;107164;1281;24532;-71
2023/01/16 23:52:44;;;;;;;12.80;8.90;;;;;;;3.52;100.00;98584.46;106959;1282;22593;-71
2023/01/16 23:55:12;;;;;;;13.80;9.70;;;;;;;3.55;100.00;98584.42;107080;1281;25287;-72
2023/01/16 23:57:39;;;;;;;17.00;10.10;;;;;;;3.54;100.00;98581.84;107138;1281;22612;-72
